METAR Data
IDs: Format: Raw Decoded Include TAF

Data at: 1529 UTC 21 Sep 2018

KLOL 211453Z AUTO 00000KT 10SM CLR 07/M05 A3016 RMK AO2 SLP199 T00671050 53013
KLOL 211353Z AUTO 29005KT 10SM CLR 04/M08 A3015 RMK AO2 SLP193 T00391078
KLOL 211253Z AUTO 10003KT 10SM CLR 02/M06 A3013 RMK AO2 SLP186 T00171061
KLOL 211153Z AUTO 00000KT 10SM CLR 02/M07 A3011 RMK AO2 SLP182 T00221072 10128 20022 53004
KLOL 211053Z AUTO 00000KT 10SM CLR 07/M06 A3011 RMK AO2 SLP173 T00671061
KLOL 210953Z AUTO 00000KT 10SM CLR 05/M06 A3010 RMK AO2 SLP174 T00501061
KLOL 210853Z AUTO 15003KT 10SM CLR 04/M06 A3010 RMK AO2 SLP175 T00441056 51004
KLOL 210753Z AUTO 00000KT 10SM CLR 09/M03 A3010 RMK AO2 SLP168 T00891033 402560028
KLOL 210653Z AUTO 20003KT 10SM CLR 09/M08 A3009 RMK AO2 SLP169 T00941078
KLOL 210553Z AUTO 00000KT 10SM CLR 12/M09 A3009 RMK AO2 SLP165 T01171089 10256 20117 51010
KLOL 210453Z AUTO 00000KT 10SM CLR 13/M10 A3009 RMK AO2 SLP166 T01281100
KLOL 210353Z AUTO 03007KT 10SM CLR 14/M09 A3007 RMK AO2 SLP164 T01391089
KLOL 210253Z AUTO 00000KT 10SM CLR 19/M05 A3005 RMK AO2 SLP159 T01891050 53004
KLOL 210153Z AUTO 00000KT 10SM CLR 23/M06 A3004 RMK AO2 SLP155 T02281056
KLOL 210053Z AUTO 00000KT 10SM CLR 25/M06 A3003 RMK AO2 SLP144 T02501056
KLOL 202353Z AUTO 09005KT 10SM CLR 24/M06 A3004 RMK AO2 SLP148 T02441061 10256 20200 56013
KLOL 202253Z AUTO VRB05KT 10SM CLR 25/M05 A3005 RMK AO2 SLP151 T02501050
KLOL 202153Z AUTO 14005KT 10SM CLR 24/M05 A3006 RMK AO2 SLP155 T02441050
KLOL 202053Z AUTO 10003KT 10SM CLR 24/M04 A3008 RMK AO2 SLP159 T02441044 58013
KLOL 201953Z AUTO VRB05KT 10SM CLR 23/M04 A3010 RMK AO2 SLP162 T02331039
KLOL 201853Z AUTO 35005KT 10SM CLR 22/M04 A3012 RMK AO2 SLP174 T02171044
KLOL 201753Z AUTO 06006KT 10SM CLR 21/M04 A3012 RMK AO2 SLP176 T02061044 10206 20028 51005
KLOL 201653Z AUTO 04009KT 10SM CLR 18/M04 A3012 RMK AO2 SLP173 T01831044
KLOL 201553Z AUTO 04008KT 10SM CLR 15/M06 A3011 RMK AO2 SLP176 T01501056
KLOL 201453Z AUTO 00000KT 10SM CLR 08/M04 A3011 RMK AO2 SLP181 T00831044 53017
KLOL 201353Z AUTO 17005KT 10SM CLR 03/M05 A3008 RMK AO2 SLP174 T00331050
KLOL 201253Z AUTO 02005KT 10SM CLR 10/M06 A3006 RMK AO2 SLP156 T01001061
KLOL 201153Z AUTO 01009KT 10SM CLR 10/M06 A3005 RMK AO2 SLP151 T01001056 10178 20067 52010
KLOL 201053Z AUTO VRB03KT 10SM CLR 09/M06 A3004 RMK AO2 SLP148 T00941056
KLOL 200953Z AUTO 07004KT 10SM CLR 09/M05 A3003 RMK AO2 SLP145 T00891050
KLOL 200853Z AUTO 02007KT 10SM CLR 12/M05 A3002 RMK AO2 SLP137 T01171050 51009
KLOL 200753Z AUTO 02004KT 10SM CLR 14/M06 A3001 RMK AO2 SLP133 T01391056 402611006
KLOL 200653Z AUTO 04005KT 10SM CLR 13/M05 A3000 RMK AO2 SLP134 T01331050
KLOL 200553Z AUTO 14005KT 10SM CLR 15/M04 A2999 RMK AO2 SLP129 T01501044 10250 20150 51019
KLOL 200453Z AUTO 34012KT 10SM CLR 18/M04 A2997 RMK AO2 SLP119 T01831044
KLOL 200353Z AUTO 32008KT 10SM CLR 16/M07 A2995 RMK AO2 SLP124 T01611067